メインページ
METAR-TAF:

METAR-TAF

空港 :

ブルネイ国際空港

ブルネイ, ブルネイ

緯度: 04-56N, 経度: 114-56E, 海抜: 22m

現時点の気象観測

当レポートは34分前の22:00(UTC)に作成
の風 3kt
気温 25°C
湿度 100%
気圧 1013 hPa
視程: 8000m
高度1400ftの雲は散在している
高度14000ftの千切れ雲あり
弱いにわか雨

METAR: WBSB 202200Z 19003KT 8000 -SHRA SCT014 BKN140 25/25 Q1013 TEMPO 5000 -SHRA

時間: 06:34 (22:34 UTC)

予報

当レポートは5時間34分前の17:00(UTC)に作成
予報は20日の 18時(UTC)から 22日の 00時(UTC)まで有効
南/南西の風 3kt
視程10km以上
高度1500ftの雲はほとんどない
高度1600ftの雲はほとんどない, 積乱雲.
20日の 20時(UTC)から 20日の 22時(UTC)まで一時的に
視程: 7000m
にわか雨
21日の 03時(UTC)から 21日の 05時(UTC)まで徐々に
北西の風 10kt
高度1600ftの雲は散在している
高度1700ftの雲はほとんどない, 積乱雲.

TAF: WBSB 201700Z 2018/2200 20003KT 9999 FEW015 FEW016CB TEMPO 2020/2022 7000 SHRA BECMG 2103/2105 32010KT SCT016 FEW017CB

4,000以上の空港の気象観測と天気予報(METAR報とTAF報)

利用可能な観測所は地図上に黄色い丸と赤い丸で示す。

丸の上にカーソルを重ねると観測所名を参照できる。

次にクリックすると気象観測と天気予報を参照できる。

マップの切り替え:黒色「×」印の緑ボタンをクリックして拡大、「-」印の緑ボタンをクリックして縮小、緑色の三角印をクリックして隣りの地図に切り替え


METAR-TAF: